createdAt,value
2016-02-28T12:31:20.503Z,6992
2016-02-28T12:32:20.443Z,7216
2016-02-28T12:33:20.430Z,6944
2016-02-28T12:34:20.416Z,6876
2016-02-28T12:35:20.404Z,7124
2016-02-28T12:36:20.422Z,7280
2016-02-28T12:37:20.410Z,7316
2016-02-28T12:38:20.412Z,7212
2016-02-28T12:39:20.430Z,7016
2016-02-28T12:40:20.402Z,7064
2016-02-28T12:41:20.779Z,7044
2016-02-28T12:42:20.454Z,7408
2016-02-28T12:43:20.394Z,7188
2016-02-28T12:44:20.412Z,6772
2016-02-28T12:45:20.384Z,6916
2016-02-28T12:46:20.386Z,7468
2016-02-28T12:47:20.389Z,6248
2016-02-28T12:48:20.407Z,6084
2016-02-28T12:49:20.395Z,5156
2016-02-28T12:50:20.398Z,8568
2016-02-28T12:51:20.400Z,7852
2016-02-28T12:52:20.403Z,7060
2016-02-28T12:53:20.390Z,4752
2016-02-28T12:54:20.409Z,6876
2016-02-28T12:55:20.380Z,6448
2016-02-28T12:56:20.382Z,6364
2016-02-28T12:57:20.385Z,6332
2016-02-28T12:58:20.388Z,6232
2016-02-28T12:59:20.391Z,6308
2016-02-28T13:00:20.394Z,6432
2016-02-28T13:01:20.396Z,6324
2016-02-28T13:02:20.399Z,7268
2016-02-28T13:03:20.401Z,7864
2016-02-28T13:04:20.404Z,6636
2016-02-28T13:05:20.407Z,5400
2016-02-28T13:06:20.397Z,2068
2016-02-28T13:07:20.399Z,3680
2016-02-28T13:08:20.375Z,3684
2016-02-28T13:09:20.409Z,3744
2016-02-28T13:10:20.412Z,3212
2016-02-28T13:11:20.399Z,3280
2016-02-28T13:12:20.418Z,3132
2016-02-28T13:13:20.404Z,3648
2016-02-28T13:14:20.376Z,3256
2016-02-28T13:15:20.362Z,4312
2016-02-28T13:16:20.381Z,4796
2016-02-28T13:17:20.369Z,6112
2016-02-28T13:18:20.340Z,5896
2016-02-28T13:19:20.342Z,2868
2016-02-28T13:20:20.345Z,2720
2016-02-28T13:21:20.331Z,1584
2016-02-28T13:22:20.335Z,3508
2016-02-28T13:23:20.323Z,3828
2016-02-28T13:24:20.340Z,2580
2016-02-28T13:25:20.328Z,2628
2016-02-28T13:26:20.330Z,2672
2016-02-28T13:27:20.287Z,2728
2016-02-28T13:28:20.304Z,2492
2016-02-28T13:29:20.306Z,1688
2016-02-28T13:30:20.278Z,3020
2016-02-28T13:31:20.265Z,4076
2016-02-28T13:32:20.252Z,4164
2016-02-28T13:33:20.239Z,3908
2016-02-28T13:34:20.242Z,4148
2016-02-28T13:35:20.261Z,4804
2016-02-28T13:36:20.247Z,4556
2016-02-28T13:37:20.250Z,4180
2016-02-28T13:38:20.222Z,4024
2016-02-28T13:39:20.209Z,3336
2016-02-28T13:40:20.211Z,3124
2016-02-28T13:41:20.183Z,2016
2016-02-28T13:42:20.248Z,4132
2016-02-28T13:43:20.173Z,4636
2016-02-28T13:44:20.160Z,4636
2016-02-28T13:45:20.179Z,4968
2016-02-28T13:46:20.149Z,5120
2016-02-28T13:47:20.199Z,5436
2016-02-28T13:48:20.139Z,6020
2016-02-28T13:49:20.142Z,6380
2016-02-28T13:50:20.145Z,6560
2016-02-28T13:51:20.116Z,6832
2016-02-28T13:52:20.135Z,6876
2016-02-28T13:53:20.106Z,6300
2016-02-28T13:54:20.109Z,7292
2016-02-28T13:55:20.095Z,8084
2016-02-28T13:56:20.098Z,8280
2016-02-28T13:57:20.086Z,8084
2016-02-28T13:58:20.073Z,6300
2016-02-28T13:59:20.075Z,6956
2016-02-28T14:00:20.062Z,5260
2016-02-28T14:01:20.049Z,2612
2016-02-28T14:02:20.052Z,1904
2016-02-28T14:03:20.039Z,1596
2016-02-28T14:04:20.026Z,2652
2016-02-28T14:05:20.013Z,1488
2016-02-28T14:06:20.031Z,1424
2016-02-28T14:07:20.018Z,1452
2016-02-28T14:08:20.006Z,6368
2016-02-28T14:09:19.993Z,6128
2016-02-28T14:10:19.996Z,5840
2016-02-28T14:11:19.966Z,5156
2016-02-28T14:12:19.969Z,4648
2016-02-28T14:13:19.988Z,4756
2016-02-28T14:14:19.959Z,4700
2016-02-28T14:15:19.962Z,4184
2016-02-28T14:16:19.933Z,4108
2016-02-28T14:17:19.935Z,4632
2016-02-28T14:18:19.955Z,5640
2016-02-28T14:19:19.926Z,5432
2016-02-28T14:20:19.944Z,6120
2016-02-28T14:21:19.915Z,5808
2016-02-28T14:22:19.903Z,2428
2016-02-28T14:23:19.921Z,6692
2016-02-28T14:24:19.971Z,2708
2016-02-28T14:25:19.880Z,6652
2016-02-28T14:26:19.882Z,6664
2016-02-28T14:27:19.900Z,6396
2016-02-28T14:28:19.856Z,3380
2016-02-28T14:29:19.843Z,2260
2016-02-28T14:30:20.064Z,6968
2016-02-28T14:31:19.833Z,7104
2016-02-28T14:32:20.367Z,7484
2016-02-28T14:33:19.853Z,7544
2016-02-28T14:34:19.841Z,8228
2016-02-28T14:35:19.891Z,8088
2016-02-28T14:36:19.816Z,7028
2016-02-28T14:37:19.818Z,6952
2016-02-28T14:38:19.789Z,7232
2016-02-28T14:39:19.807Z,1972
2016-02-28T14:40:19.779Z,7244
2016-02-28T14:41:19.783Z,6596
2016-02-28T14:42:19.785Z,6748
2016-02-28T14:43:19.771Z,6184
2016-02-28T14:44:19.758Z,5620
2016-02-28T14:45:19.760Z,5240
2016-02-28T14:46:19.749Z,4272
2016-02-28T14:47:19.752Z,2540
2016-02-28T14:48:19.785Z,1116
2016-02-28T14:49:19.757Z,1120
2016-02-28T14:50:19.728Z,1380
2016-02-28T14:51:19.746Z,5436
2016-02-28T14:52:19.718Z,5904
2016-02-28T14:53:19.721Z,5592
2016-02-28T14:54:19.707Z,5728
2016-02-28T14:55:19.710Z,5640
2016-02-28T14:56:19.697Z,5464
2016-02-28T14:57:19.684Z,5132
2016-02-28T14:58:19.687Z,4772
2016-02-28T14:59:19.690Z,4720
2016-02-28T15:00:19.676Z,3588
2016-02-28T15:01:19.648Z,2232
2016-02-28T15:02:19.681Z,5404
2016-02-28T15:03:19.670Z,5180
2016-02-28T15:04:19.687Z,5464
2016-02-28T15:05:19.628Z,5512
2016-02-28T15:06:19.646Z,5416
2016-02-28T15:07:19.634Z,4380
2016-02-28T15:08:19.619Z,4096
2016-02-28T15:09:19.483Z,3444
2016-02-28T15:10:19.610Z,1852
2016-02-28T15:11:19.597Z,2932
2016-02-28T15:12:19.599Z,2876
2016-02-28T15:13:19.602Z,3180
2016-02-28T15:14:19.652Z,3240
2016-02-28T15:15:19.577Z,1332
2016-02-28T15:16:19.579Z,1424
2016-02-28T15:17:19.597Z,1216
2016-02-28T15:18:19.568Z,1536
2016-02-28T15:19:19.557Z,1120
2016-02-28T15:20:19.559Z,1844
2016-02-28T15:21:19.546Z,1604
2016-02-28T15:22:19.548Z,2452
2016-02-28T15:23:19.582Z,2328
2016-02-28T15:24:19.585Z,2460
2016-02-28T15:25:19.526Z,2296
2016-02-28T15:26:19.559Z,2156
2016-02-28T15:27:19.531Z,2612
2016-02-28T15:28:19.517Z,2400
2016-02-28T15:29:19.520Z,2068
2016-02-28T15:30:19.507Z,2288
2016-02-28T15:31:19.494Z,2620
2016-02-28T15:32:19.512Z,2860
2016-02-28T15:33:19.469Z,3280
2016-02-28T15:34:19.487Z,3176
2016-02-28T15:35:19.475Z,3120
2016-02-28T15:36:19.477Z,3040
2016-02-28T15:37:19.511Z,2904
2016-02-28T15:38:19.467Z,2796
2016-02-28T15:39:19.500Z,2724
2016-02-28T15:40:19.441Z,2780
2016-02-28T15:41:19.458Z,3144
2016-02-28T15:42:19.430Z,2860
2016-02-28T15:43:19.433Z,2516
2016-02-28T15:44:19.420Z,2620
2016-02-28T15:45:19.422Z,2556
2016-02-28T15:46:19.410Z,2460
2016-02-28T15:47:19.413Z,1920
2016-02-28T15:48:19.415Z,1256
2016-02-28T15:49:19.387Z,920
2016-02-28T15:50:19.373Z,872
2016-02-28T15:51:19.376Z,836
2016-02-28T15:52:19.380Z,796
2016-02-28T15:53:19.351Z,840
2016-02-28T15:54:19.384Z,1936
2016-02-28T15:55:19.356Z,1820
2016-02-28T15:56:19.343Z,1928
2016-02-28T15:57:19.346Z,1880
2016-02-28T15:58:19.332Z,1452
2016-02-28T15:59:19.335Z,1672
2016-02-28T16:00:19.323Z,1648
2016-02-28T16:01:19.326Z,1472
2016-02-28T16:02:19.328Z,1240
2016-02-28T16:03:19.300Z,1212
2016-02-28T16:04:19.303Z,1348
2016-02-28T16:05:19.273Z,1452
2016-02-28T16:06:19.291Z,1380
2016-02-28T16:07:19.295Z,1260
2016-02-28T16:08:19.281Z,1280
2016-02-28T16:09:19.269Z,1304
2016-02-28T16:10:19.272Z,1308
2016-02-28T16:11:19.305Z,1316
2016-02-28T16:12:19.245Z,1256
2016-02-28T16:13:19.248Z,1240
2016-02-28T16:14:19.751Z,1180
2016-02-28T16:15:19.269Z,1084
2016-02-28T16:16:19.241Z,952
2016-02-28T16:17:19.243Z,832
2016-02-28T16:18:19.215Z,724
2016-02-28T16:19:19.202Z,640
2016-02-28T16:20:19.205Z,604
2016-02-28T16:21:19.207Z,592
2016-02-28T16:22:19.194Z,572
2016-02-28T16:23:19.212Z,564
2016-02-28T16:24:19.184Z,560
2016-02-28T16:25:19.202Z,544
2016-02-28T16:26:19.237Z,532
2016-02-28T16:27:19.176Z,520
2016-02-28T16:28:19.148Z,508
2016-02-28T16:29:19.150Z,492
2016-02-28T16:30:19.153Z,476
2016-02-28T16:31:19.140Z,460
2016-02-28T16:32:19.143Z,444
2016-02-28T16:33:19.130Z,424
2016-02-28T16:34:19.133Z,408
2016-02-28T16:35:19.104Z,392
2016-02-28T16:36:19.106Z,376
2016-02-28T16:37:19.109Z,368
2016-02-28T16:38:19.128Z,352
2016-02-28T16:39:19.083Z,340
2016-02-28T16:40:19.196Z,328
2016-02-28T16:41:19.105Z,312
2016-02-28T16:42:19.060Z,296
2016-02-28T16:43:19.063Z,284
2016-02-28T16:44:19.050Z,272
2016-02-28T16:45:19.022Z,268
2016-02-28T16:46:19.025Z,256
2016-02-28T16:47:18.996Z,248
2016-02-28T16:48:18.998Z,240
2016-02-28T16:49:18.969Z,228
2016-02-28T16:50:18.973Z,224
2016-02-28T16:51:18.975Z,212
2016-02-28T16:52:18.947Z,204
2016-02-28T16:53:18.950Z,192
2016-02-28T16:54:18.904Z,180
2016-02-28T16:55:18.917Z,168
2016-02-28T16:56:18.895Z,156
2016-02-28T16:57:18.842Z,148
2016-02-28T16:58:18.852Z,136
2016-02-28T16:59:18.846Z,128
2016-02-28T17:00:18.799Z,124
2016-02-28T17:01:18.814Z,112
2016-02-28T17:02:18.783Z,112
2016-02-28T17:03:18.750Z,104
2016-02-28T17:04:18.812Z,100
2016-02-28T17:05:18.580Z,92
2016-02-28T17:06:18.743Z,88
2016-02-28T17:07:18.712Z,80
2016-02-28T17:08:18.699Z,76
2016-02-28T17:09:18.701Z,68
2016-02-28T17:10:18.688Z,64
2016-02-28T17:11:18.706Z,60
2016-02-28T17:12:18.645Z,56
2016-02-28T17:13:18.710Z,52
2016-02-28T17:14:18.649Z,48
2016-02-28T17:15:18.667Z,44
2016-02-28T17:16:18.607Z,40
2016-02-28T17:17:18.625Z,36
2016-02-28T17:18:18.644Z,28
2016-02-28T17:19:18.630Z,32
2016-02-28T17:20:18.570Z,24
2016-02-28T17:21:18.558Z,24
2016-02-28T17:22:18.544Z,20
2016-02-28T17:23:18.547Z,20
2016-02-28T17:24:18.549Z,16
2016-02-28T17:25:18.537Z,16
2016-02-28T17:26:18.524Z,16
2016-02-28T17:27:18.511Z,12
2016-02-28T17:28:18.545Z,12
2016-02-28T17:29:18.485Z,16
2016-02-28T17:30:18.331Z,12
2016-02-28T17:31:18.459Z,12
2016-02-28T17:32:18.493Z,12
2016-02-28T17:33:18.293Z,8
2016-02-28T17:34:18.467Z,12
2016-02-28T17:35:18.423Z,12
2016-02-28T17:36:18.409Z,12
2016-02-28T17:37:18.397Z,8
2016-02-28T17:38:18.400Z,8
2016-02-28T17:39:18.372Z,8
2016-02-28T17:40:18.358Z,8
2016-02-28T17:41:18.439Z,8
2016-02-28T17:42:18.347Z,8
2016-02-28T17:43:18.366Z,8
2016-02-28T17:44:18.322Z,8
2016-02-28T17:45:18.308Z,8
2016-02-28T17:46:18.296Z,8
2016-02-28T17:47:18.283Z,8
2016-02-28T17:48:18.333Z,8
2016-02-28T17:49:18.274Z,8
2016-02-28T17:50:18.276Z,8
2016-02-28T17:51:18.232Z,0
2016-02-28T17:52:18.235Z,0
2016-02-28T17:53:18.222Z,0
2016-02-28T17:54:18.396Z,0
2016-02-28T17:55:18.195Z,0
2016-02-28T17:56:18.182Z,0
2016-02-28T17:57:18.185Z,0
2016-02-28T17:58:18.204Z,0
2016-02-28T17:59:18.176Z,0
2016-02-28T18:00:18.162Z,0
2016-02-28T18:01:18.165Z,0
2016-02-28T18:02:18.136Z,8
2016-02-28T18:20:04.482Z,0
2016-02-28T18:21:04.515Z,0
2016-02-28T18:22:04.425Z,0
2016-02-28T18:23:04.411Z,0
2016-02-28T18:24:04.399Z,0
2016-02-28T18:25:04.385Z,0
2016-02-28T18:26:04.404Z,0
2016-02-28T18:27:04.343Z,0
2016-02-28T18:28:04.331Z,0
2016-02-28T18:29:04.335Z,0
2016-02-28T18:30:04.337Z,0
2016-02-28T18:31:04.293Z,0
2016-02-28T18:32:04.311Z,0
2016-02-28T18:33:04.266Z,0
2016-02-28T18:34:04.238Z,0
2016-02-28T18:35:04.273Z,0
2016-02-28T18:50:04.077Z,0
2016-02-28T18:51:04.019Z,0
2016-02-28T18:52:03.989Z,0
2016-02-28T18:53:04.024Z,0
2016-02-28T18:54:03.963Z,0
2016-02-28T18:55:03.966Z,0
2016-02-28T18:56:03.953Z,0
2016-02-28T18:57:03.957Z,0
2016-02-28T18:58:03.959Z,0
2016-02-28T18:59:03.946Z,0
2016-02-28T19:00:03.917Z,0
2016-02-28T19:01:03.873Z,0
2016-02-28T19:02:03.876Z,0
2016-02-28T19:03:03.848Z,0
2016-02-28T19:04:03.725Z,0
2016-02-28T19:05:03.821Z,0
2016-02-28T19:20:51.755Z,0
2016-02-28T19:21:51.758Z,0
2016-02-28T19:22:51.714Z,0
2016-02-28T19:23:51.716Z,0
2016-02-28T19:24:51.687Z,0
2016-02-28T19:25:51.674Z,0
2016-02-28T19:26:51.677Z,0
2016-02-28T19:27:51.649Z,0
2016-02-28T19:28:51.635Z,0
2016-02-28T19:29:51.607Z,0
2016-02-28T19:30:51.626Z,0
2016-02-28T19:31:51.597Z,0
2016-02-28T19:32:51.599Z,0
2016-02-28T19:33:51.571Z,0
2016-02-28T19:34:51.558Z,0
2016-02-28T19:35:51.545Z,0
2016-02-28T19:51:21.258Z,0
2016-02-28T19:52:21.230Z,0
2016-02-28T19:53:21.185Z,0
2016-02-28T19:54:21.172Z,0
2016-02-28T19:55:21.205Z,0
2016-02-28T19:56:21.161Z,0
2016-02-28T19:57:21.133Z,0
2016-02-28T19:58:21.121Z,0
2016-02-28T19:59:21.091Z,0
2016-02-28T20:00:21.079Z,0
2016-02-28T20:01:21.066Z,0
2016-02-28T20:02:21.084Z,0
2016-02-28T20:03:21.055Z,0
2016-02-28T20:04:21.043Z,0
2016-02-28T20:05:21.060Z,0
2016-02-28T20:20:27.871Z,0
2016-02-28T20:21:27.889Z,0
2016-02-28T20:22:27.860Z,0
2016-02-28T20:23:27.848Z,0
2016-02-28T20:24:27.818Z,0
2016-02-28T20:25:27.821Z,0
2016-02-28T20:26:27.809Z,0
2016-02-28T20:27:27.781Z,0
2016-02-28T20:28:27.767Z,0
2016-02-28T20:29:27.754Z,0
2016-02-28T20:30:27.695Z,0
2016-02-28T20:31:27.712Z,0
2016-02-28T20:32:27.700Z,0
2016-02-28T20:33:27.686Z,0
2016-02-28T20:34:27.705Z,0
2016-02-28T20:52:27.803Z,0
2016-02-28T20:53:27.774Z,0
2016-02-28T20:54:27.761Z,0
2016-02-28T20:55:27.748Z,0
2016-02-28T20:56:27.735Z,0
2016-02-28T20:57:27.706Z,0
2016-02-28T20:58:27.709Z,0
2016-02-28T20:59:27.681Z,0
2016-02-28T21:00:27.683Z,0
2016-02-28T21:01:27.671Z,0
2016-02-28T21:02:27.642Z,0
2016-02-28T21:03:27.707Z,0
2016-02-28T21:04:27.631Z,0
2016-02-28T21:05:27.447Z,0
2016-02-28T21:21:48.618Z,0
2016-02-28T21:22:48.621Z,0
2016-02-28T21:23:48.576Z,0
2016-02-28T21:24:48.578Z,0
2016-02-28T21:25:48.551Z,0
2016-02-28T21:26:48.537Z,0
2016-02-28T21:27:48.540Z,0
2016-02-28T21:28:48.542Z,0
2016-02-28T21:29:48.498Z,0
2016-02-28T21:30:48.485Z,0
2016-02-28T21:31:48.489Z,0
2016-02-28T21:32:48.459Z,0
2016-02-28T21:33:48.446Z,0
2016-02-28T21:34:48.294Z,0
2016-02-28T21:35:48.436Z,0
2016-02-28T21:51:04.601Z,0
2016-02-28T21:52:04.573Z,0
2016-02-28T21:53:04.576Z,0
2016-02-28T21:54:04.579Z,0
2016-02-28T21:55:04.518Z,0
2016-02-28T21:56:04.553Z,0
2016-02-28T21:57:04.509Z,0
2016-02-28T21:58:04.512Z,0
2016-02-28T21:59:04.483Z,0
2016-02-28T22:00:04.470Z,0
2016-02-28T22:01:04.442Z,0
2016-02-28T22:02:04.428Z,0
2016-02-28T22:03:04.431Z,0
2016-02-28T22:04:04.700Z,0
2016-02-28T22:05:04.406Z,0
2016-02-28T22:21:54.154Z,0
2016-02-28T22:22:54.126Z,0
2016-02-28T22:23:54.097Z,0
2016-02-28T22:24:54.084Z,0
2016-02-28T22:25:54.087Z,0
2016-02-28T22:26:54.059Z,0
2016-02-28T22:27:54.076Z,0
2016-02-28T22:28:54.032Z,0
2016-02-28T22:29:54.020Z,0
2016-02-28T22:30:54.023Z,0
2016-02-28T22:31:53.993Z,0
2016-02-28T22:32:53.981Z,0
2016-02-28T22:33:53.952Z,0
2016-02-28T22:49:59.136Z,0
2016-02-28T22:50:59.107Z,0
2016-02-28T22:51:59.094Z,0
2016-02-28T22:52:58.924Z,0
2016-02-28T22:53:59.053Z,0
2016-02-28T22:54:59.040Z,0
2016-02-28T22:55:59.012Z,0
2016-02-28T22:56:58.998Z,0
2016-02-28T22:57:59.001Z,0
2016-02-28T22:58:58.972Z,0
2016-02-28T22:59:58.959Z,0
2016-02-28T23:00:58.946Z,0
2016-02-28T23:01:58.949Z,0
2016-02-28T23:02:58.906Z,0
2016-02-28T23:03:58.908Z,0
2016-02-28T23:20:09.185Z,0
2016-02-28T23:21:09.172Z,0
2016-02-28T23:22:09.128Z,0
2016-02-28T23:23:09.146Z,0
2016-02-28T23:24:09.118Z,0
2016-02-28T23:25:09.105Z,0
2016-02-28T23:26:08.935Z,0
2016-02-28T23:27:09.047Z,0
2016-02-28T23:28:09.051Z,0
2016-02-28T23:29:09.037Z,0
2016-02-28T23:30:09.009Z,0
2016-02-28T23:31:08.996Z,0
2016-02-28T23:32:08.967Z,0
2016-02-28T23:33:08.798Z,0
2016-02-28T23:34:08.942Z,0
2016-02-28T23:50:22.157Z,0
2016-02-28T23:51:22.113Z,0
2016-02-28T23:52:22.115Z,0
2016-02-28T23:53:22.071Z,0
2016-02-28T23:54:22.074Z,0
2016-02-28T23:55:22.060Z,0
2016-02-28T23:56:22.032Z,0
2016-02-28T23:57:22.035Z,0
2016-02-28T23:58:21.990Z,0
2016-02-28T23:59:21.993Z,0
